Terminal Aerodrome Forecast
Issued by NWS Riverton, WY

Home | Current Version | Previous Version | Text Only | Print | Product List | Glossary On
Versions: 1 2 3 4 5 6 7 8 9 10 11 12
000
FTUS45 KRIW 312338
TAFRIW
TAF
KRIW 312338Z 0100/0124 06007KT P6SM FEW120
     FM010400 34008KT P6SM FEW200
     FM011400 VRB05KT P6SM SKC
     FM012000 03007KT P6SM FEW120=

USA.gov is the U.S. government's official web portal to all federal, state and local government web resources and services.